createdAt,value
2023-04-05T00:02:14.147Z,7.03
2023-04-05T00:04:50.482Z,6.63
2023-04-05T00:07:19.153Z,6.40
2023-04-05T00:09:46.357Z,7.30
2023-04-05T00:12:13.462Z,7.15
2023-04-05T00:14:40.333Z,6.78
2023-04-05T00:17:08.936Z,6.30
2023-04-05T00:19:38.248Z,6.50
2023-04-05T00:22:05.267Z,6.60
2023-04-05T00:24:34.159Z,6.85
2023-04-05T00:27:01.373Z,7.28
2023-04-05T00:29:28.381Z,7.15
2023-04-05T00:31:56.192Z,6.38
2023-04-05T00:34:23.008Z,7.65
2023-04-05T00:36:49.740Z,6.97
2023-04-05T00:39:16.425Z,7.18
2023-04-05T00:41:46.323Z,6.88
2023-04-05T00:44:14.539Z,7.40
2023-04-05T00:46:42.108Z,7.43
2023-04-05T00:49:09.605Z,6.90
2023-04-05T00:51:38.228Z,7.07
2023-04-05T00:54:05.253Z,7.00
2023-04-05T00:56:32.898Z,7.43
2023-04-05T00:58:59.763Z,7.05
2023-04-05T01:01:27.853Z,7.38
2023-04-05T01:04:02.817Z,7.53
2023-04-05T01:06:44.994Z,7.32
2023-04-05T01:09:40.841Z,7.35
2023-04-05T01:12:10.306Z,7.15
2023-04-05T01:14:45.006Z,6.90
2023-04-05T01:17:11.749Z,7.55
2023-04-05T01:19:42.133Z,7.38
2023-04-05T01:22:47.917Z,6.75
2023-04-05T01:25:28.278Z,7.22
2023-04-05T01:28:14.311Z,7.45
2023-04-05T01:30:44.276Z,7.45
2023-04-05T01:33:26.972Z,7.88
2023-04-05T01:36:23.509Z,6.95
2023-04-05T01:38:51.449Z,7.18
2023-04-05T01:41:18.258Z,7.07
2023-04-05T01:43:44.946Z,6.60
2023-04-05T01:46:11.802Z,7.35
2023-04-05T01:48:38.608Z,7.40
2023-04-05T01:51:05.426Z,7.32
2023-04-05T01:53:32.180Z,6.72
2023-04-05T01:56:02.384Z,7.30
2023-04-05T01:58:29.592Z,7.65
2023-04-05T02:00:56.676Z,6.95
2023-04-05T02:03:24.499Z,7.45
2023-04-05T02:05:52.059Z,7.13
2023-04-05T02:08:19.082Z,7.05
2023-04-05T02:10:46.051Z,7.07
2023-04-05T02:13:13.706Z,7.45
2023-04-05T02:15:40.670Z,7.57
2023-04-05T02:18:08.115Z,7.45
2023-04-05T02:20:35.066Z,7.57
2023-04-05T02:23:02.054Z,7.03
2023-04-05T02:25:29.026Z,7.65
2023-04-05T02:27:55.784Z,7.30
2023-04-05T02:30:22.511Z,7.20
2023-04-05T02:32:49.283Z,7.35
2023-04-05T02:35:17.407Z,7.00
2023-04-05T02:37:44.294Z,6.97
2023-04-05T02:40:15.118Z,7.20
2023-04-05T02:42:42.315Z,7.32
2023-04-05T02:45:09.472Z,7.25
2023-04-05T02:47:36.355Z,7.25
2023-04-05T02:50:03.335Z,7.32
2023-04-05T02:52:32.330Z,7.65
2023-04-05T02:54:58.995Z,7.25
2023-04-05T02:57:26.033Z,7.25
2023-04-05T02:59:52.715Z,7.50
2023-04-05T03:02:19.402Z,7.20
2023-04-05T03:04:46.134Z,7.03
2023-04-05T03:07:18.460Z,7.28
2023-04-05T03:09:46.450Z,7.45
2023-04-05T03:12:13.531Z,7.32
2023-04-05T03:14:40.384Z,7.45
2023-04-05T03:17:07.105Z,8.18
2023-04-05T03:19:34.203Z,7.45
2023-04-05T03:22:01.016Z,8.00
2023-04-05T03:24:27.822Z,8.23
2023-04-05T03:26:54.597Z,8.13
2023-04-05T03:29:21.323Z,7.88
2023-04-05T03:31:50.319Z,7.88
2023-04-05T03:34:17.182Z,8.45
2023-04-05T03:36:43.879Z,7.20
2023-04-05T03:39:12.116Z,7.72
2023-04-05T03:41:40.261Z,8.32
2023-04-05T03:44:08.155Z,8.10
2023-04-05T03:46:38.109Z,8.45
2023-04-05T03:49:06.155Z,8.43
2023-04-05T03:51:33.456Z,8.60
2023-04-05T03:54:00.364Z,8.00
2023-04-05T03:56:27.321Z,7.63
2023-04-05T03:58:54.230Z,8.10
2023-04-05T04:01:21.488Z,7.82
2023-04-05T04:03:48.307Z,8.38
2023-04-05T04:06:17.793Z,7.95
2023-04-05T04:08:45.843Z,7.72
2023-04-05T04:11:12.540Z,7.97
2023-04-05T04:13:39.253Z,8.00
2023-04-05T04:16:06.346Z,8.40
2023-04-05T04:18:33.236Z,8.15
2023-04-05T04:21:07.173Z,8.65
2023-04-05T04:23:34.668Z,7.97
2023-04-05T04:26:01.688Z,8.20
2023-04-05T04:28:29.584Z,9.15
2023-04-05T04:30:56.313Z,8.80
2023-04-05T04:33:24.158Z,8.52
2023-04-05T04:35:54.724Z,8.80
2023-04-05T04:38:21.704Z,8.80
2023-04-05T04:40:50.955Z,8.65
2023-04-05T04:43:17.805Z,8.15
2023-04-05T04:45:48.741Z,8.68
2023-04-05T04:48:16.942Z,8.38
2023-04-05T04:50:44.527Z,8.93
2023-04-05T04:53:13.605Z,8.82
2023-04-05T04:55:43.725Z,8.68
2023-04-05T04:58:12.942Z,9.07
2023-04-05T05:00:40.870Z,9.10
2023-04-05T05:03:08.671Z,8.85
2023-04-05T05:05:35.493Z,8.60
2023-04-05T05:08:02.274Z,7.55
2023-04-05T05:10:29.036Z,9.25
2023-04-05T05:12:56.029Z,8.20
2023-04-05T05:15:22.896Z,7.90
2023-04-05T05:17:53.292Z,8.85
2023-04-05T05:20:20.218Z,8.38
2023-04-05T05:22:47.193Z,7.75
2023-04-05T05:25:13.938Z,8.55
2023-04-05T05:27:41.325Z,9.18
2023-04-05T05:30:09.266Z,9.57
2023-04-05T05:32:36.084Z,8.85
2023-04-05T05:35:03.109Z,8.80
2023-04-05T05:37:31.668Z,8.68
2023-04-05T05:39:58.553Z,9.25
2023-04-05T05:42:25.871Z,8.68
2023-04-05T05:44:52.822Z,8.77
2023-04-05T05:47:19.833Z,8.52
2023-04-05T05:49:46.669Z,8.50
2023-04-05T05:52:13.738Z,8.68
2023-04-05T05:54:40.414Z,8.50
2023-04-05T05:57:07.144Z,8.70
2023-04-05T05:59:33.959Z,9.48
2023-04-05T06:02:00.942Z,9.27
2023-04-05T06:04:29.061Z,8.77
2023-04-05T06:06:57.018Z,8.48
2023-04-05T06:09:23.758Z,8.30
2023-04-05T06:11:56.708Z,9.02
2023-04-05T06:14:25.033Z,6.30
2023-04-05T06:16:52.150Z,9.18
2023-04-05T06:19:19.013Z,8.98
2023-04-05T06:21:45.992Z,8.82
2023-04-05T06:24:12.725Z,8.52
2023-04-05T06:26:41.444Z,9.60
2023-04-05T06:29:08.173Z,9.15
2023-04-05T06:31:36.154Z,9.02
2023-04-05T06:34:03.273Z,8.73
2023-04-05T06:36:34.147Z,8.70
2023-04-05T06:39:01.437Z,8.75
2023-04-05T06:41:28.273Z,9.02
2023-04-05T06:43:56.090Z,8.50
2023-04-05T06:46:23.219Z,8.77
2023-04-05T06:48:50.760Z,9.45
2023-04-05T06:51:18.165Z,8.77
2023-04-05T06:53:44.870Z,8.88
2023-04-05T06:56:11.827Z,8.55
2023-04-05T06:58:38.893Z,8.52
2023-04-05T07:01:06.600Z,8.73
2023-04-05T07:03:33.993Z,9.20
2023-04-05T07:06:01.207Z,8.68
2023-04-05T07:08:29.543Z,8.90
2023-04-05T07:10:56.395Z,8.35
2023-04-05T07:13:24.757Z,8.70
2023-04-05T07:15:52.554Z,8.57
2023-04-05T07:18:19.673Z,8.30
2023-04-05T07:20:49.560Z,7.85
2023-04-05T07:23:18.286Z,8.48
2023-04-05T07:25:45.983Z,8.25
2023-04-05T07:28:12.663Z,8.50
2023-04-05T07:30:39.490Z,8.77
2023-04-05T07:33:06.470Z,8.70
2023-04-05T07:35:33.348Z,8.65
2023-04-05T07:38:00.225Z,8.23
2023-04-05T07:40:27.812Z,8.43
2023-04-05T07:42:54.869Z,8.65
2023-04-05T07:45:21.675Z,8.25
2023-04-05T07:47:48.461Z,8.15
2023-04-05T07:50:15.775Z,8.02
2023-04-05T07:52:43.026Z,7.93
2023-04-05T07:55:10.513Z,7.82
2023-04-05T07:57:37.741Z,8.57
2023-04-05T08:00:10.272Z,7.80
2023-04-05T08:02:37.100Z,7.75
2023-04-05T08:05:04.129Z,6.90
2023-04-05T08:07:30.949Z,6.90
2023-04-05T08:09:59.216Z,6.15
2023-04-05T08:12:27.164Z,6.80
2023-04-05T08:14:54.072Z,7.18
2023-04-05T08:17:20.788Z,7.10
2023-04-05T08:19:47.772Z,6.45
2023-04-05T08:22:16.542Z,7.50
2023-04-05T08:24:43.460Z,6.88
2023-04-05T08:27:10.465Z,6.57
2023-04-05T08:29:37.706Z,6.63
2023-04-05T08:32:04.989Z,6.55
2023-04-05T08:34:31.700Z,6.90
2023-04-05T08:37:00.080Z,6.47
2023-04-05T08:39:26.992Z,6.93
2023-04-05T08:42:14.730Z,6.35
2023-04-05T08:44:41.895Z,6.50
2023-04-05T08:47:10.729Z,7.05
2023-04-05T08:49:37.560Z,6.85
2023-04-05T08:52:06.102Z,7.05
2023-04-05T08:54:33.037Z,6.40
2023-04-05T08:57:01.374Z,6.95
2023-04-05T08:59:28.647Z,6.30
2023-04-05T09:01:56.572Z,6.43
2023-04-05T09:04:24.983Z,6.45
2023-04-05T09:06:55.767Z,6.50
2023-04-05T09:09:24.033Z,6.95
2023-04-05T09:11:51.185Z,5.75
2023-04-05T09:14:19.081Z,6.25
2023-04-05T09:16:47.038Z,6.03
2023-04-05T09:19:13.820Z,5.28
2023-04-05T09:22:03.752Z,5.75
2023-04-05T09:24:33.193Z,5.30
2023-04-05T09:27:13.476Z,5.85
2023-04-05T09:29:42.560Z,5.63
2023-04-05T09:32:11.357Z,5.00
2023-04-05T09:34:39.443Z,5.10
2023-04-05T09:37:20.589Z,5.03
2023-04-05T09:39:49.895Z,4.70
2023-04-05T09:42:19.500Z,4.88
2023-04-05T09:44:50.430Z,5.28
2023-04-05T09:47:18.412Z,5.32
2023-04-05T09:49:45.592Z,5.50
2023-04-05T09:52:31.918Z,5.57
2023-04-05T09:55:01.157Z,5.15
2023-04-05T09:57:29.590Z,5.70
2023-04-05T09:59:56.471Z,5.40
2023-04-05T10:02:23.473Z,5.38
2023-04-05T10:04:51.040Z,5.82
2023-04-05T10:07:19.790Z,5.20
2023-04-05T10:09:48.396Z,4.97
2023-04-05T10:12:26.938Z,5.03
2023-04-05T10:14:55.038Z,5.25
2023-04-05T10:17:29.711Z,5.13
2023-04-05T10:20:16.493Z,5.35
2023-04-05T10:22:57.575Z,5.22
2023-04-05T10:25:36.247Z,4.53
2023-04-05T10:28:36.357Z,5.07
2023-04-05T10:31:36.974Z,5.55
2023-04-05T10:34:06.585Z,4.90
2023-04-05T10:36:59.597Z,5.10
2023-04-05T10:39:53.188Z,4.88
2023-04-05T10:42:24.799Z,5.07
2023-04-05T10:44:59.998Z,4.93
2023-04-05T10:47:28.750Z,5.32
2023-04-05T10:50:00.299Z,5.28
2023-04-05T10:52:28.723Z,5.38
2023-04-05T10:54:57.972Z,5.70
2023-04-05T10:57:25.626Z,5.30
2023-04-05T10:59:53.706Z,5.55
2023-04-05T11:02:20.941Z,5.20
2023-04-05T11:04:56.168Z,4.97
2023-04-05T11:07:23.057Z,5.43
2023-04-05T11:09:53.627Z,5.00
2023-04-05T11:12:21.013Z,5.43
2023-04-05T11:14:47.889Z,5.03
2023-04-05T11:17:28.733Z,5.43
2023-04-05T11:20:03.935Z,5.35
2023-04-05T11:22:31.143Z,5.50
2023-04-05T11:25:01.880Z,4.97
2023-04-05T11:27:34.028Z,5.10
2023-04-05T11:30:02.176Z,5.07
2023-04-05T11:32:43.692Z,5.82
2023-04-05T11:35:14.677Z,5.60
2023-04-05T11:38:00.348Z,5.82
2023-04-05T11:40:31.983Z,5.63
2023-04-05T11:43:07.457Z,5.10
2023-04-05T11:45:35.861Z,5.60
2023-04-05T11:48:07.452Z,5.25
2023-04-05T11:50:36.096Z,4.60
2023-04-05T11:53:12.887Z,6.07
2023-04-05T11:55:47.052Z,5.57
2023-04-05T11:58:15.593Z,5.72
2023-04-05T12:00:44.079Z,5.63
2023-04-05T12:03:15.456Z,5.75
2023-04-05T12:05:50.129Z,5.78
2023-04-05T12:08:17.988Z,5.35
2023-04-05T12:10:45.835Z,5.15
2023-04-05T12:13:12.693Z,4.97
2023-04-05T12:15:41.007Z,4.65
2023-04-05T12:18:14.044Z,5.75
2023-04-05T12:20:41.401Z,5.90
2023-04-05T12:23:09.528Z,5.50
2023-04-05T12:25:38.917Z,5.20
2023-04-05T12:28:09.390Z,5.25
2023-04-05T12:30:38.859Z,5.30
2023-04-05T12:33:09.771Z,6.10
2023-04-05T12:35:36.994Z,5.70
2023-04-05T12:38:06.064Z,6.45
2023-04-05T12:40:35.101Z,6.35
2023-04-05T12:43:06.658Z,6.10
2023-04-05T12:45:40.810Z,4.47
2023-04-05T12:48:11.232Z,4.55
2023-04-05T12:50:43.484Z,5.30
2023-04-05T12:53:23.137Z,5.25
2023-04-05T12:55:52.645Z,5.55
2023-04-05T12:58:20.694Z,5.03
2023-04-05T13:00:47.738Z,5.65
2023-04-05T13:03:20.884Z,5.85
2023-04-05T13:05:51.683Z,6.10
2023-04-05T13:08:19.440Z,5.53
2023-04-05T13:10:47.918Z,5.40
2023-04-05T13:13:15.729Z,5.70
2023-04-05T13:15:42.996Z,5.72
2023-04-05T13:18:10.127Z,4.70
2023-04-05T13:20:37.039Z,5.22
2023-04-05T13:23:03.977Z,5.72
2023-04-05T13:25:30.850Z,5.30
2023-04-05T13:27:57.598Z,4.93
2023-04-05T13:30:24.490Z,5.55
2023-04-05T13:32:51.277Z,5.30
2023-04-05T13:35:18.117Z,5.20
2023-04-05T13:37:44.815Z,5.57
2023-04-05T13:40:11.786Z,6.15
2023-04-05T13:42:38.649Z,5.25
2023-04-05T13:45:06.014Z,5.00
2023-04-05T13:47:32.839Z,4.13
2023-04-05T13:49:59.626Z,4.15
2023-04-05T13:52:26.690Z,4.95
2023-04-05T13:55:02.169Z,4.75
2023-04-05T13:57:30.818Z,4.30
2023-04-05T13:59:57.624Z,4.15
2023-04-05T14:02:26.059Z,4.35
2023-04-05T14:04:53.912Z,4.15
2023-04-05T14:07:22.074Z,3.58
2023-04-05T14:09:48.812Z,3.70
2023-04-05T14:12:15.659Z,4.22
2023-04-05T14:14:42.460Z,3.85
2023-04-05T14:17:11.474Z,5.07
2023-04-05T14:19:38.849Z,4.47
2023-04-05T14:22:05.584Z,3.72
2023-04-05T14:24:32.326Z,3.95
2023-04-05T14:26:59.095Z,3.38
2023-04-05T14:29:26.044Z,4.40
2023-04-05T14:31:54.469Z,3.90
2023-04-05T14:34:21.285Z,4.10
2023-04-05T14:36:48.477Z,3.80
2023-04-05T14:39:15.522Z,3.53
2023-04-05T14:41:42.285Z,5.00
2023-04-05T14:44:08.988Z,4.82
2023-04-05T14:46:35.734Z,5.55
2023-04-05T14:49:02.448Z,4.15
2023-04-05T14:51:29.379Z,3.80
2023-04-05T14:53:56.281Z,5.10
2023-04-05T14:56:24.074Z,4.45
2023-04-05T14:58:51.059Z,4.40
2023-04-05T15:01:17.940Z,3.70
2023-04-05T15:03:44.971Z,3.95
2023-04-05T15:06:11.924Z,4.38
2023-04-05T15:08:38.782Z,4.50
2023-04-05T15:11:05.952Z,4.40
2023-04-05T15:13:33.809Z,3.80
2023-04-05T15:16:00.782Z,4.20
2023-04-05T15:18:27.543Z,4.10
2023-04-05T15:20:54.410Z,3.72
2023-04-05T15:23:21.567Z,4.22
2023-04-05T15:25:48.252Z,4.60
2023-04-05T15:28:15.005Z,3.70
2023-04-05T15:30:43.243Z,4.55
2023-04-05T15:33:10.180Z,3.80
2023-04-05T15:35:37.200Z,4.20
2023-04-05T15:38:03.995Z,4.78
2023-04-05T15:40:30.922Z,4.00
2023-04-05T15:42:57.810Z,3.90
2023-04-05T15:45:24.547Z,4.30
2023-04-05T15:47:51.384Z,4.53
2023-04-05T15:50:18.286Z,4.45
2023-04-05T15:52:44.998Z,4.97
2023-04-05T15:55:11.710Z,4.40
2023-04-05T15:57:38.739Z,5.47
2023-04-05T16:00:06.523Z,5.40
2023-04-05T16:02:33.383Z,4.72
2023-04-05T16:05:00.261Z,4.95
2023-04-05T16:07:26.952Z,5.47
2023-04-05T16:09:53.721Z,4.80
2023-04-05T16:12:20.642Z,5.00
2023-04-05T16:14:47.323Z,5.20
2023-04-05T16:17:14.141Z,4.35
2023-04-05T16:19:41.357Z,5.00
2023-04-05T16:22:08.157Z,4.20
2023-04-05T16:24:36.829Z,3.75
2023-04-05T16:27:03.913Z,3.47
2023-04-05T16:29:30.755Z,5.05
2023-04-05T16:31:57.632Z,5.38
2023-04-05T16:34:24.480Z,4.85
2023-04-05T16:36:51.647Z,5.53
2023-04-05T16:39:18.440Z,4.50
2023-04-05T16:41:45.404Z,5.45
2023-04-05T16:44:12.163Z,5.72
2023-04-05T16:46:39.832Z,4.80
2023-04-05T16:49:06.633Z,4.85
2023-04-05T16:51:35.637Z,4.55
2023-04-05T16:54:02.569Z,4.80
2023-04-05T16:56:29.272Z,4.95
2023-04-05T16:58:57.677Z,4.72
2023-04-05T17:01:24.732Z,4.80
2023-04-05T17:03:51.577Z,4.70
2023-04-05T17:06:18.378Z,5.07
2023-04-05T17:08:45.064Z,5.22
2023-04-05T17:11:11.808Z,5.40
2023-04-05T17:13:38.624Z,5.55
2023-04-05T17:16:05.755Z,5.95
2023-04-05T17:18:32.552Z,5.70
2023-04-05T17:20:59.248Z,5.72
2023-04-05T17:23:26.027Z,5.68
2023-04-05T17:25:52.787Z,6.20
2023-04-05T17:28:19.581Z,5.80
2023-04-05T17:30:46.768Z,5.75
2023-04-05T17:33:13.673Z,6.00
2023-04-05T17:35:40.612Z,6.53
2023-04-05T17:38:07.601Z,5.93
2023-04-05T17:40:34.415Z,6.13
2023-04-05T17:43:01.369Z,6.10
2023-04-05T17:45:28.821Z,5.88
2023-04-05T17:47:55.713Z,6.65
2023-04-05T17:50:24.491Z,7.13
2023-04-05T17:52:51.742Z,7.10
2023-04-05T17:55:18.727Z,6.90
2023-04-05T17:57:45.595Z,6.50
2023-04-05T18:00:12.905Z,6.85
2023-04-05T18:02:40.932Z,7.20
2023-04-05T18:05:08.619Z,6.55
2023-04-05T18:07:36.964Z,6.80
2023-04-05T18:10:05.372Z,6.80
2023-04-05T18:12:33.453Z,7.32
2023-04-05T18:15:00.396Z,6.88
2023-04-05T18:17:28.088Z,7.40
2023-04-05T18:19:54.973Z,7.28
2023-04-05T18:22:21.707Z,7.60
2023-04-05T18:24:48.454Z,7.30
2023-04-05T18:27:15.341Z,7.68
2023-04-05T18:29:42.578Z,7.85
2023-04-05T18:32:09.762Z,6.60
2023-04-05T18:34:36.768Z,6.80
2023-04-05T18:37:04.073Z,7.20
2023-04-05T18:39:30.893Z,7.05
2023-04-05T18:41:57.627Z,7.63
2023-04-05T18:44:24.360Z,8.23
2023-04-05T18:46:51.130Z,7.70
2023-04-05T18:49:19.254Z,7.55
2023-04-05T18:51:46.267Z,7.50
2023-04-05T18:54:13.917Z,8.23
2023-04-05T18:56:41.381Z,7.00
2023-04-05T18:59:08.486Z,7.68
2023-04-05T19:01:35.640Z,6.95
2023-04-05T19:04:02.548Z,7.00
2023-04-05T19:06:29.908Z,7.90
2023-04-05T19:08:56.696Z,8.13
2023-04-05T19:11:23.360Z,8.52
2023-04-05T19:13:50.721Z,7.53
2023-04-05T19:16:17.627Z,7.70
2023-04-05T19:18:44.820Z,8.38
2023-04-05T19:21:11.525Z,8.07
2023-04-05T19:23:38.852Z,8.27
2023-04-05T19:26:05.924Z,8.48
2023-04-05T19:28:32.743Z,8.95
2023-04-05T19:30:59.568Z,8.68
2023-04-05T19:33:27.071Z,8.15
2023-04-05T19:35:54.250Z,7.50
2023-04-05T19:38:22.330Z,8.07
2023-04-05T19:40:49.533Z,8.57
2023-04-05T19:43:17.271Z,8.80
2023-04-05T19:45:44.205Z,8.20
2023-04-05T19:48:37.703Z,8.85
2023-04-05T19:51:08.591Z,8.02
2023-04-05T19:53:49.503Z,7.45
2023-04-05T19:56:22.945Z,8.27
2023-04-05T19:59:01.731Z,8.50
2023-04-05T20:01:37.179Z,8.10
2023-04-05T20:04:15.632Z,7.40
2023-04-05T20:06:43.482Z,7.03
2023-04-05T20:09:13.444Z,6.70
2023-04-05T20:11:40.834Z,7.47
2023-04-05T20:14:09.119Z,7.68
2023-04-05T20:16:37.226Z,6.97
2023-04-05T20:19:11.410Z,7.38
2023-04-05T20:21:38.908Z,7.25
2023-04-05T20:24:09.018Z,6.88
2023-04-05T20:26:35.795Z,7.00
2023-04-05T20:29:07.115Z,6.50
2023-04-05T20:31:38.875Z,6.47
2023-04-05T20:34:22.081Z,6.32
2023-04-05T20:36:51.312Z,6.55
2023-04-05T20:39:18.496Z,6.38
2023-04-05T20:41:46.606Z,6.80
2023-04-05T20:44:13.422Z,6.65
2023-04-05T20:46:40.857Z,6.90
2023-04-05T20:49:08.181Z,6.20
2023-04-05T20:51:35.239Z,6.78
2023-04-05T20:54:02.215Z,7.63
2023-04-05T20:56:28.989Z,7.72
2023-04-05T20:58:56.126Z,8.30
2023-04-05T21:01:23.063Z,9.60
2023-04-05T21:03:49.880Z,8.65
2023-04-05T21:06:16.620Z,16.50
2023-04-05T21:08:43.311Z,9.13
2023-04-05T21:11:11.777Z,8.38
2023-04-05T21:13:39.290Z,7.97
2023-04-05T21:16:06.381Z,7.30
2023-04-05T21:18:33.452Z,7.00
2023-04-05T21:21:00.996Z,7.80
2023-04-05T21:23:29.222Z,7.13
2023-04-05T21:25:56.815Z,6.57
2023-04-05T21:28:24.618Z,6.60
2023-04-05T21:30:51.767Z,7.25
2023-04-05T21:33:19.170Z,7.68
2023-04-05T21:35:46.185Z,7.20
2023-04-05T21:38:15.440Z,6.60
2023-04-05T21:40:44.502Z,6.78
2023-04-05T21:43:12.364Z,6.30
2023-04-05T21:45:39.126Z,6.40
2023-04-05T21:48:06.281Z,6.40
2023-04-05T21:50:33.060Z,6.22
2023-04-05T21:52:59.977Z,6.00
2023-04-05T21:55:26.658Z,6.15
2023-04-05T21:57:53.361Z,6.47
2023-04-05T22:00:20.489Z,5.63
2023-04-05T22:02:47.491Z,6.70
2023-04-05T22:05:29.469Z,6.78
2023-04-05T22:08:01.440Z,6.78
2023-04-05T22:10:28.989Z,6.95
2023-04-05T22:12:56.203Z,7.00
2023-04-05T22:15:22.937Z,6.25
2023-04-05T22:17:49.632Z,6.15
2023-04-05T22:20:16.505Z,6.47
2023-04-05T22:22:43.293Z,6.22
2023-04-05T22:25:10.203Z,5.50
2023-04-05T22:27:37.022Z,6.82
2023-04-05T22:30:04.734Z,6.53
2023-04-05T22:32:31.544Z,6.68
2023-04-05T22:34:58.342Z,6.50
2023-04-05T22:37:25.408Z,6.95
2023-04-05T22:39:52.143Z,7.00
2023-04-05T22:42:18.851Z,7.15
2023-04-05T22:44:45.789Z,6.10
2023-04-05T22:47:12.515Z,6.60
2023-04-05T22:49:39.230Z,6.55
2023-04-05T22:52:06.277Z,6.70
2023-04-05T22:54:33.128Z,6.63
2023-04-05T22:57:00.992Z,7.35
2023-04-05T22:59:27.895Z,7.07
2023-04-05T23:02:01.726Z,7.22
2023-04-05T23:04:28.436Z,8.32
2023-04-05T23:06:55.260Z,7.80
2023-04-05T23:09:22.435Z,8.45
2023-04-05T23:11:49.641Z,8.32
2023-04-05T23:14:16.340Z,8.48
2023-04-05T23:16:44.129Z,8.38
2023-04-05T23:19:11.244Z,7.97
2023-04-05T23:21:38.062Z,8.13
2023-04-05T23:24:06.276Z,8.18
2023-04-05T23:26:34.280Z,7.75
2023-04-05T23:29:01.085Z,8.35
2023-04-05T23:31:27.947Z,7.60
2023-04-05T23:33:55.119Z,7.50
2023-04-05T23:36:24.756Z,6.97
2023-04-05T23:38:51.831Z,6.68
2023-04-05T23:41:18.532Z,7.35
2023-04-05T23:43:46.202Z,6.70
2023-04-05T23:46:13.207Z,7.47
2023-04-05T23:48:40.054Z,7.22
2023-04-05T23:51:07.011Z,7.50
2023-04-05T23:53:33.762Z,6.82
2023-04-05T23:56:00.498Z,6.32
2023-04-05T23:58:28.206Z,6.88
